createdAt,value
2017-05-18T00:00:15.638Z,953.36
2017-05-18T00:01:13.954Z,953.35
2017-05-18T00:02:13.939Z,953.36
2017-05-18T00:03:14.069Z,953.30
2017-05-18T00:04:13.983Z,953.29
2017-05-18T00:05:14.158Z,953.32
2017-05-18T00:06:14.089Z,953.30
2017-05-18T00:07:14.153Z,953.29
2017-05-18T00:08:14.009Z,953.29
2017-05-18T00:09:15.592Z,953.28
2017-05-18T00:10:14.888Z,953.23
2017-05-18T00:11:14.139Z,953.27
2017-05-18T00:12:14.130Z,953.25
2017-05-18T00:13:11.870Z,953.21
2017-05-18T00:14:14.649Z,953.20
2017-05-18T00:15:12.215Z,953.19
2017-05-18T00:16:13.951Z,953.22
2017-05-18T00:17:14.196Z,953.20
2017-05-18T00:18:11.512Z,953.16
2017-05-18T00:19:14.504Z,953.15
2017-05-18T00:20:14.562Z,953.12
2017-05-18T00:21:14.708Z,953.11
2017-05-18T00:22:13.554Z,953.11
2017-05-18T00:23:15.573Z,953.10
2017-05-18T00:24:15.768Z,953.09
2017-05-18T00:25:14.009Z,953.10
2017-05-18T00:26:14.903Z,953.11
2017-05-18T00:27:14.252Z,953.12
2017-05-18T00:28:14.902Z,953.09
2017-05-18T00:29:15.436Z,953.08
2017-05-18T00:30:14.533Z,953.05
2017-05-18T00:31:14.503Z,953.04
2017-05-18T00:32:14.720Z,953.03
2017-05-18T00:33:11.222Z,953.03
2017-05-18T00:34:10.571Z,953.01
2017-05-18T00:35:14.323Z,953.01
2017-05-18T00:36:14.494Z,952.99
2017-05-18T00:37:14.439Z,952.98
2017-05-18T00:38:16.128Z,952.96
2017-05-18T00:39:14.088Z,953.00
2017-05-18T00:40:14.749Z,952.97
2017-05-18T00:41:14.686Z,952.96
2017-05-18T00:42:14.772Z,953.00
2017-05-18T00:43:14.826Z,952.96
2017-05-18T00:44:13.757Z,952.97
2017-05-18T00:45:14.040Z,952.91
2017-05-18T00:46:14.022Z,952.92
2017-05-18T00:47:14.550Z,952.94
2017-05-18T00:48:15.054Z,952.92
2017-05-18T00:49:14.094Z,952.93
2017-05-18T00:50:14.417Z,952.91
2017-05-18T00:51:14.738Z,952.92
2017-05-18T00:52:13.779Z,952.89
2017-05-18T00:53:14.012Z,952.92
2017-05-18T00:54:14.533Z,952.86
2017-05-18T00:55:14.462Z,952.85
2017-05-18T00:56:14.480Z,952.85
2017-05-18T00:57:10.363Z,952.82
2017-05-18T00:58:11.519Z,952.84
2017-05-18T00:59:14.297Z,952.83
2017-05-18T01:00:14.397Z,952.83
2017-05-18T01:01:14.837Z,952.77
2017-05-18T01:02:11.433Z,952.83
2017-05-18T01:03:14.544Z,952.76
2017-05-18T01:04:14.619Z,952.77
2017-05-18T01:05:15.583Z,952.79
2017-05-18T01:06:12.631Z,952.81
2017-05-18T01:07:13.883Z,952.79
2017-05-18T01:08:14.001Z,952.79
2017-05-18T01:09:13.919Z,952.79
2017-05-18T01:10:14.540Z,952.80
2017-05-18T01:11:15.174Z,952.80
2017-05-18T01:12:14.633Z,952.75
2017-05-18T01:13:15.605Z,952.74
2017-05-18T01:14:15.521Z,952.73
2017-05-18T01:15:14.788Z,952.71
2017-05-18T01:16:13.767Z,952.72
2017-05-18T01:17:13.758Z,952.69
2017-05-18T01:18:13.765Z,952.72
2017-05-18T01:19:13.694Z,952.72
2017-05-18T01:20:13.490Z,952.75
2017-05-18T01:21:14.503Z,952.70
2017-05-18T01:22:12.116Z,952.75
2017-05-18T01:23:13.697Z,952.74
2017-05-18T01:24:11.183Z,952.72
2017-05-18T01:25:14.135Z,952.72
2017-05-18T01:26:14.664Z,952.71
2017-05-18T01:27:14.198Z,952.68
2017-05-18T01:28:14.506Z,952.69
2017-05-18T01:29:14.755Z,952.69
2017-05-18T01:30:14.246Z,952.70
2017-05-18T01:31:11.227Z,952.68
2017-05-18T01:32:14.894Z,952.70
2017-05-18T01:33:13.852Z,952.69
2017-05-18T01:34:13.850Z,952.68
2017-05-18T01:35:14.948Z,952.71
2017-05-18T01:36:14.341Z,952.68
2017-05-18T01:37:15.587Z,952.71
2017-05-18T01:38:14.938Z,952.70
2017-05-18T01:39:15.529Z,952.75
2017-05-18T01:40:14.884Z,952.72
2017-05-18T01:41:14.378Z,952.73
2017-05-18T01:42:14.681Z,952.71
2017-05-18T01:43:13.778Z,952.69
2017-05-18T01:44:13.502Z,952.67
2017-05-18T01:45:14.822Z,952.70
2017-05-18T01:46:14.044Z,952.67
2017-05-18T01:47:14.272Z,952.72
2017-05-18T01:48:14.161Z,952.67
2017-05-18T01:49:15.253Z,952.65
2017-05-18T01:50:14.065Z,952.66
2017-05-18T01:51:14.576Z,952.65
2017-05-18T01:52:15.272Z,952.68
2017-05-18T01:53:14.174Z,952.64
2017-05-18T01:54:14.767Z,952.65
2017-05-18T01:55:13.949Z,952.62
2017-05-18T01:56:13.787Z,952.65
2017-05-18T01:57:10.077Z,952.65
2017-05-18T01:58:14.644Z,952.63
2017-05-18T01:59:11.186Z,952.64
2017-05-18T02:00:13.667Z,952.65
2017-05-18T02:01:09.933Z,952.61
2017-05-18T02:02:14.482Z,952.60
2017-05-18T02:03:14.641Z,952.60
2017-05-18T02:04:13.783Z,952.63
2017-05-18T02:05:13.836Z,952.59
2017-05-18T02:06:14.489Z,952.60
2017-05-18T02:07:14.776Z,952.61
2017-05-18T02:08:10.533Z,952.56
2017-05-18T02:09:14.513Z,952.60
2017-05-18T02:10:14.332Z,952.56
2017-05-18T02:11:14.828Z,952.59
2017-05-18T02:12:13.981Z,952.58
2017-05-18T02:13:14.113Z,952.55
2017-05-18T02:14:14.385Z,952.56
2017-05-18T02:15:14.350Z,952.61
2017-05-18T02:16:14.456Z,952.56
2017-05-18T02:17:15.317Z,952.58
2017-05-18T02:18:14.829Z,952.55
2017-05-18T02:19:14.555Z,952.56
2017-05-18T02:20:14.707Z,952.52
2017-05-18T02:21:16.436Z,952.50
2017-05-18T02:22:14.241Z,952.54
2017-05-18T02:23:14.568Z,952.55
2017-05-18T02:24:14.516Z,952.56
2017-05-18T02:25:11.246Z,952.53
2017-05-18T02:26:14.911Z,952.51
2017-05-18T02:27:14.915Z,952.50
2017-05-18T02:28:14.126Z,952.47
2017-05-18T02:29:13.972Z,952.43
2017-05-18T02:30:14.218Z,952.47
2017-05-18T02:31:11.196Z,952.47
2017-05-18T02:32:14.332Z,952.48
2017-05-18T02:33:14.654Z,952.45
2017-05-18T02:34:15.833Z,952.47
2017-05-18T02:35:14.601Z,952.44
2017-05-18T02:36:12.342Z,952.46
2017-05-18T02:37:14.264Z,952.45
2017-05-18T02:38:15.400Z,952.46
2017-05-18T02:39:15.097Z,952.48
2017-05-18T02:40:14.645Z,952.50
2017-05-18T02:41:15.159Z,952.50
2017-05-18T02:42:14.564Z,952.52
2017-05-18T02:43:14.711Z,952.46
2017-05-18T02:44:14.038Z,952.46
2017-05-18T02:45:14.003Z,952.45
2017-05-18T02:46:14.777Z,952.47
2017-05-18T02:47:14.729Z,952.45
2017-05-18T02:48:14.435Z,952.44
2017-05-18T02:49:15.025Z,952.41
2017-05-18T02:50:14.614Z,952.39
2017-05-18T02:51:15.082Z,952.38
2017-05-18T02:52:10.400Z,952.39
2017-05-18T02:53:14.016Z,952.39
2017-05-18T02:54:14.718Z,952.38
2017-05-18T02:55:13.515Z,952.36
2017-05-18T02:56:14.725Z,952.42
2017-05-18T02:57:13.583Z,952.39
2017-05-18T02:58:14.878Z,952.39
2017-05-18T02:59:14.552Z,952.34
2017-05-18T03:00:15.917Z,952.39
2017-05-18T03:01:13.887Z,952.38
2017-05-18T03:02:14.575Z,952.35
2017-05-18T03:03:16.059Z,952.42
2017-05-18T03:04:14.187Z,952.40
2017-05-18T03:05:14.662Z,952.43
2017-05-18T03:06:14.304Z,952.41
2017-05-18T03:07:14.336Z,952.42
2017-05-18T03:08:14.395Z,952.40
2017-05-18T03:09:14.257Z,952.43
2017-05-18T03:10:14.462Z,952.39
2017-05-18T03:11:11.509Z,952.43
2017-05-18T03:12:14.128Z,952.40
2017-05-18T03:13:14.085Z,952.41
2017-05-18T03:14:14.153Z,952.37
2017-05-18T03:15:14.321Z,952.39
2017-05-18T03:16:14.396Z,952.41
2017-05-18T03:17:14.238Z,952.39
2017-05-18T03:18:14.364Z,952.38
2017-05-18T03:19:14.954Z,952.39
2017-05-18T03:20:13.986Z,952.36
2017-05-18T03:21:14.286Z,952.34
2017-05-18T03:22:14.819Z,952.33
2017-05-18T03:23:13.360Z,952.33
2017-05-18T03:24:14.527Z,952.31
2017-05-18T03:25:15.209Z,952.28
2017-05-18T03:26:15.185Z,952.31
2017-05-18T03:27:10.880Z,952.28
2017-05-18T03:28:14.176Z,952.32
2017-05-18T03:29:14.018Z,952.32
2017-05-18T03:30:14.549Z,952.30
2017-05-18T03:31:15.521Z,952.29
2017-05-18T03:32:15.100Z,952.28
2017-05-18T03:33:16.855Z,952.29
2017-05-18T03:34:14.474Z,952.26
2017-05-18T03:35:16.094Z,952.23
2017-05-18T03:36:14.148Z,952.25
2017-05-18T03:37:14.078Z,952.29
2017-05-18T03:38:14.340Z,952.26
2017-05-18T03:39:14.614Z,952.33
2017-05-18T03:40:14.620Z,952.30
2017-05-18T03:41:10.977Z,952.26
2017-05-18T03:42:14.483Z,952.25
2017-05-18T03:43:14.571Z,952.26
2017-05-18T03:44:14.297Z,952.27
2017-05-18T03:45:11.283Z,952.27
2017-05-18T03:46:14.292Z,952.29
2017-05-18T03:47:14.435Z,952.28
2017-05-18T03:48:14.441Z,952.31
2017-05-18T03:49:14.502Z,952.28
2017-05-18T03:50:14.554Z,952.32
2017-05-18T03:51:18.806Z,952.29
2017-05-18T03:52:14.004Z,952.31
2017-05-18T03:53:14.511Z,952.34
2017-05-18T03:54:14.422Z,952.28
2017-05-18T03:55:14.395Z,952.31
2017-05-18T03:56:14.877Z,952.31
2017-05-18T03:57:14.089Z,952.31
2017-05-18T03:58:14.916Z,952.32
2017-05-18T03:59:15.446Z,952.25
2017-05-18T04:00:14.335Z,952.29
2017-05-18T04:01:14.440Z,952.29
2017-05-18T04:02:14.397Z,952.33
2017-05-18T04:03:14.817Z,952.34
2017-05-18T04:04:14.657Z,952.33
2017-05-18T04:05:14.927Z,952.34
2017-05-18T04:06:13.927Z,952.29
2017-05-18T04:07:13.886Z,952.27
2017-05-18T04:08:13.798Z,952.30
2017-05-18T04:09:14.821Z,952.26
2017-05-18T04:10:14.218Z,952.28
2017-05-18T04:11:14.232Z,952.27
2017-05-18T04:12:14.709Z,952.27
2017-05-18T04:13:13.851Z,952.23
2017-05-18T04:14:13.819Z,952.25
2017-05-18T04:15:14.280Z,952.23
2017-05-18T04:16:10.604Z,952.24
2017-05-18T04:17:14.698Z,952.24
2017-05-18T04:18:13.341Z,952.23
2017-05-18T04:19:14.514Z,952.25
2017-05-18T04:20:14.764Z,952.25
2017-05-18T04:21:13.760Z,952.26
2017-05-18T04:22:13.749Z,952.27
2017-05-18T04:23:13.939Z,952.26
2017-05-18T04:24:13.830Z,952.29
2017-05-18T04:25:15.170Z,952.25
2017-05-18T04:26:14.624Z,952.25
2017-05-18T04:27:15.236Z,952.18
2017-05-18T04:28:14.573Z,952.25
2017-05-18T04:29:14.568Z,952.21
2017-05-18T04:30:16.145Z,952.25
2017-05-18T04:31:14.475Z,952.20
2017-05-18T04:32:15.034Z,952.21
2017-05-18T04:33:14.731Z,952.21
2017-05-18T04:34:13.727Z,952.22
2017-05-18T04:35:15.042Z,952.22
2017-05-18T04:36:14.087Z,952.21
2017-05-18T04:37:14.146Z,952.24
2017-05-18T04:38:14.008Z,952.27
2017-05-18T04:39:14.089Z,952.23
2017-05-18T04:40:10.643Z,952.29
2017-05-18T04:41:14.999Z,952.25
2017-05-18T04:42:14.009Z,952.29
2017-05-18T04:43:11.584Z,952.26
2017-05-18T04:44:11.480Z,952.28
2017-05-18T04:45:10.270Z,952.29
2017-05-18T04:46:14.157Z,952.32
2017-05-18T04:47:14.405Z,952.33
2017-05-18T04:48:14.420Z,952.32
2017-05-18T04:49:14.519Z,952.32
2017-05-18T04:50:15.495Z,952.32
2017-05-18T04:51:11.050Z,952.33
2017-05-18T04:52:14.434Z,952.34
2017-05-18T04:53:14.729Z,952.30
2017-05-18T04:54:13.805Z,952.32
2017-05-18T04:55:13.965Z,952.30
2017-05-18T04:56:14.026Z,952.30
2017-05-18T04:57:13.935Z,952.30
2017-05-18T04:58:13.820Z,952.26
2017-05-18T04:59:14.313Z,952.25
2017-05-18T05:00:14.632Z,952.28
2017-05-18T05:01:13.562Z,952.29
2017-05-18T05:02:14.618Z,952.27
2017-05-18T05:03:14.889Z,952.31
2017-05-18T05:04:14.425Z,952.28
2017-05-18T05:05:14.394Z,952.27
2017-05-18T05:06:14.506Z,952.27
2017-05-18T05:07:14.760Z,952.28
2017-05-18T05:08:14.471Z,952.28
2017-05-18T05:09:14.672Z,952.28
2017-05-18T05:10:13.749Z,952.29
2017-05-18T05:11:13.782Z,952.32
2017-05-18T05:12:14.300Z,952.31
2017-05-18T05:13:14.513Z,952.29
2017-05-18T05:14:14.856Z,952.32
2017-05-18T05:15:14.145Z,952.32
2017-05-18T05:16:15.242Z,952.34
2017-05-18T05:17:15.078Z,952.31
2017-05-18T05:18:14.219Z,952.37
2017-05-18T05:19:14.567Z,952.34
2017-05-18T05:20:14.772Z,952.33
2017-05-18T05:21:13.533Z,952.35
2017-05-18T05:22:15.767Z,952.34
2017-05-18T05:23:13.679Z,952.30
2017-05-18T05:24:10.477Z,952.31
2017-05-18T05:25:13.766Z,952.35
2017-05-18T05:26:14.025Z,952.34
2017-05-18T05:27:14.250Z,952.37
2017-05-18T05:28:14.286Z,952.32
2017-05-18T05:29:15.465Z,952.34
2017-05-18T05:30:14.992Z,952.34
2017-05-18T05:31:15.569Z,952.38
2017-05-18T05:32:14.836Z,952.34
2017-05-18T05:33:14.474Z,952.34
2017-05-18T05:34:15.190Z,952.38
2017-05-18T05:35:14.415Z,952.38
2017-05-18T05:36:14.783Z,952.37
2017-05-18T05:37:14.321Z,952.38
2017-05-18T05:38:14.519Z,952.41
2017-05-18T05:39:15.037Z,952.41
2017-05-18T05:40:14.175Z,952.43
2017-05-18T05:41:14.432Z,952.40
2017-05-18T05:42:12.108Z,952.40
2017-05-18T05:43:13.860Z,952.41
2017-05-18T05:44:10.591Z,952.42
2017-05-18T05:45:14.558Z,952.38
2017-05-18T05:46:15.242Z,952.41
2017-05-18T05:47:15.308Z,952.40
2017-05-18T05:48:14.511Z,952.42
2017-05-18T05:49:14.971Z,952.38
2017-05-18T05:50:09.525Z,952.41
2017-05-18T05:51:14.847Z,952.36
2017-05-18T05:52:13.654Z,952.39
2017-05-18T05:53:10.548Z,952.41
2017-05-18T05:54:14.488Z,952.42
2017-05-18T05:55:16.976Z,952.41
2017-05-18T05:56:14.014Z,952.44
2017-05-18T05:57:14.708Z,952.40
2017-05-18T05:58:14.377Z,952.43
2017-05-18T05:59:14.684Z,952.38
2017-05-18T06:00:13.689Z,952.40
2017-05-18T06:01:14.208Z,952.40
2017-05-18T06:02:14.430Z,952.38
2017-05-18T06:03:14.787Z,952.41
2017-05-18T06:04:13.943Z,952.38
2017-05-18T06:05:14.575Z,952.40
2017-05-18T06:06:14.226Z,952.41
2017-05-18T06:07:14.394Z,952.39
2017-05-18T06:08:14.335Z,952.41
2017-05-18T06:09:14.300Z,952.37
2017-05-18T06:10:11.879Z,952.40
2017-05-18T06:11:15.363Z,952.37
2017-05-18T06:12:15.435Z,952.39
2017-05-18T06:13:14.404Z,952.40
2017-05-18T06:14:14.212Z,952.38
2017-05-18T06:15:14.814Z,952.43
2017-05-18T06:16:13.785Z,952.40
2017-05-18T06:17:14.136Z,952.42
2017-05-18T06:18:14.179Z,952.41
2017-05-18T06:19:14.370Z,952.41
2017-05-18T06:20:14.301Z,952.42
2017-05-18T06:21:14.483Z,952.42
2017-05-18T06:22:11.875Z,952.45
2017-05-18T06:23:14.470Z,952.41
2017-05-18T06:24:14.715Z,952.48
2017-05-18T06:25:13.823Z,952.43
2017-05-18T06:26:14.053Z,952.44
2017-05-18T06:27:14.515Z,952.49
2017-05-18T06:28:15.567Z,952.47
2017-05-18T06:29:14.682Z,952.51
2017-05-18T06:30:13.048Z,952.46
2017-05-18T06:31:13.797Z,952.50
2017-05-18T06:32:11.468Z,952.54
2017-05-18T06:33:13.795Z,952.52
2017-05-18T06:34:14.213Z,952.51
2017-05-18T06:35:14.866Z,952.47
2017-05-18T06:36:14.360Z,952.48
2017-05-18T06:37:14.595Z,952.49
2017-05-18T06:38:14.958Z,952.49
2017-05-18T06:39:14.281Z,952.49
2017-05-18T06:40:14.652Z,952.50
2017-05-18T06:41:14.627Z,952.49
2017-05-18T06:42:15.217Z,952.49
2017-05-18T06:43:14.076Z,952.50
2017-05-18T06:44:15.017Z,952.47
2017-05-18T06:45:13.904Z,952.49
2017-05-18T06:46:11.486Z,952.51
2017-05-18T06:47:14.518Z,952.46
2017-05-18T06:48:14.647Z,952.50
2017-05-18T06:49:13.604Z,952.51
2017-05-18T06:50:14.747Z,952.47
2017-05-18T06:51:14.214Z,952.50
2017-05-18T06:52:14.312Z,952.51
2017-05-18T06:53:14.503Z,952.49
2017-05-18T06:54:14.046Z,952.51
2017-05-18T06:55:14.516Z,952.50
2017-05-18T06:56:10.449Z,952.48
2017-05-18T06:57:13.882Z,952.51
2017-05-18T06:58:14.443Z,952.50
2017-05-18T06:59:14.205Z,952.50
2017-05-18T07:00:14.805Z,952.54
2017-05-18T07:01:13.980Z,952.54
2017-05-18T07:02:14.003Z,952.54
2017-05-18T07:03:13.995Z,952.55
2017-05-18T07:04:14.450Z,952.55
2017-05-18T07:05:14.390Z,952.59
2017-05-18T07:06:14.529Z,952.57
2017-05-18T07:07:14.607Z,952.55
2017-05-18T07:08:15.188Z,952.65
2017-05-18T07:09:14.750Z,952.56
2017-05-18T07:10:13.737Z,952.58
2017-05-18T07:11:14.060Z,952.56
2017-05-18T07:12:14.394Z,952.58
2017-05-18T07:13:14.467Z,952.57
2017-05-18T07:14:12.184Z,952.59
2017-05-18T07:15:13.501Z,952.58
2017-05-18T07:16:14.815Z,952.58
2017-05-18T07:17:14.279Z,952.59
2017-05-18T07:18:14.627Z,952.58
2017-05-18T07:19:14.468Z,952.60
2017-05-18T07:20:14.384Z,952.58
2017-05-18T07:21:14.679Z,952.59
2017-05-18T07:22:14.283Z,952.63
2017-05-18T07:23:14.362Z,952.62
2017-05-18T07:24:15.521Z,952.60
2017-05-18T07:25:15.153Z,952.63
2017-05-18T07:26:14.722Z,952.66
2017-05-18T07:27:15.189Z,952.60
2017-05-18T07:28:14.292Z,952.60
2017-05-18T07:29:16.275Z,952.58
2017-05-18T07:30:14.451Z,952.63
2017-05-18T07:31:15.125Z,952.64
2017-05-18T07:32:14.143Z,952.64
2017-05-18T07:33:14.830Z,952.65
2017-05-18T07:34:13.771Z,952.65
2017-05-18T07:35:15.792Z,952.63
2017-05-18T07:36:15.092Z,952.62
2017-05-18T07:37:14.108Z,952.62
2017-05-18T07:38:14.175Z,952.67
2017-05-18T07:39:14.214Z,952.64
2017-05-18T07:40:14.510Z,952.61
2017-05-18T07:41:15.072Z,952.60
2017-05-18T07:42:13.955Z,952.60
2017-05-18T07:43:10.935Z,952.59
2017-05-18T07:44:11.432Z,952.55
2017-05-18T07:45:14.842Z,952.54
2017-05-18T07:46:13.808Z,952.58
2017-05-18T07:47:14.296Z,952.60
2017-05-18T07:48:14.689Z,952.56
2017-05-18T07:49:14.241Z,952.54
2017-05-18T07:50:14.186Z,952.54
2017-05-18T07:51:10.953Z,952.49
2017-05-18T07:52:14.034Z,952.51
2017-05-18T07:53:11.807Z,952.54
2017-05-18T07:54:14.728Z,952.55
2017-05-18T07:55:13.832Z,952.56
2017-05-18T07:56:14.053Z,952.53
2017-05-18T07:57:14.551Z,952.53
2017-05-18T07:58:15.754Z,952.49
2017-05-18T07:59:14.007Z,952.51
2017-05-18T08:00:13.790Z,952.50
2017-05-18T08:01:13.886Z,952.52
2017-05-18T08:02:14.007Z,952.50
2017-05-18T08:03:11.071Z,952.46
2017-05-18T08:04:14.423Z,952.47
2017-05-18T08:05:14.831Z,952.52
2017-05-18T08:06:14.345Z,952.51
2017-05-18T08:07:14.047Z,952.53
2017-05-18T08:08:14.191Z,952.49
2017-05-18T08:09:14.529Z,952.49
2017-05-18T08:10:14.838Z,952.52
2017-05-18T08:11:14.203Z,952.46
2017-05-18T08:12:14.431Z,952.49
2017-05-18T08:13:14.949Z,952.48
2017-05-18T08:14:13.936Z,952.48
2017-05-18T08:15:14.288Z,952.45
2017-05-18T08:16:14.657Z,952.47
2017-05-18T08:17:13.996Z,952.45
2017-05-18T08:18:14.601Z,952.45
2017-05-18T08:19:14.671Z,952.48
2017-05-18T08:20:10.946Z,952.48
2017-05-18T08:21:11.119Z,952.45
2017-05-18T08:22:14.722Z,952.51
2017-05-18T08:23:14.083Z,952.47
2017-05-18T08:24:11.264Z,952.50
2017-05-18T08:25:14.464Z,952.47
2017-05-18T08:26:11.955Z,952.43
2017-05-18T08:27:13.846Z,952.44
2017-05-18T08:28:13.023Z,952.42
2017-05-18T08:29:13.937Z,952.48
2017-05-18T08:30:14.656Z,952.46
2017-05-18T08:31:14.742Z,952.45
2017-05-18T08:32:15.097Z,952.42
2017-05-18T08:33:14.152Z,952.42
2017-05-18T08:34:14.182Z,952.40
2017-05-18T08:35:14.277Z,952.42
2017-05-18T08:36:14.924Z,952.41
2017-05-18T08:37:13.781Z,952.38
2017-05-18T08:38:13.895Z,952.42
2017-05-18T08:39:14.160Z,952.44
2017-05-18T08:40:14.653Z,952.44
2017-05-18T08:41:13.784Z,952.44
2017-05-18T08:42:13.999Z,952.43
2017-05-18T08:43:13.952Z,952.43
2017-05-18T08:44:14.650Z,952.46
2017-05-18T08:45:14.056Z,952.41
2017-05-18T08:46:11.482Z,952.45
2017-05-18T08:47:14.044Z,952.41
2017-05-18T08:48:10.863Z,952.44
2017-05-18T08:49:17.124Z,952.49
2017-05-18T08:50:15.400Z,952.45
2017-05-18T08:51:14.648Z,952.46
2017-05-18T08:52:18.257Z,952.48
2017-05-18T08:53:13.602Z,952.48
2017-05-18T08:54:15.174Z,952.51
2017-05-18T08:55:14.366Z,952.49
2017-05-18T08:56:14.606Z,952.49
2017-05-18T08:57:12.150Z,952.46
2017-05-18T08:58:14.323Z,952.48
2017-05-18T08:59:13.950Z,952.48
2017-05-18T09:00:14.535Z,952.47
2017-05-18T09:01:14.724Z,952.44
2017-05-18T09:02:13.987Z,952.48
2017-05-18T09:03:14.099Z,952.49
2017-05-18T09:04:14.752Z,952.50
2017-05-18T09:05:13.745Z,952.46
2017-05-18T09:06:14.443Z,952.47
2017-05-18T09:07:14.314Z,952.49
2017-05-18T09:08:14.173Z,952.49
2017-05-18T09:09:14.220Z,952.53
2017-05-18T09:10:14.767Z,952.51
2017-05-18T09:11:13.810Z,952.53
2017-05-18T09:12:14.325Z,952.50
2017-05-18T09:13:14.642Z,952.46
2017-05-18T09:14:13.677Z,952.46
2017-05-18T09:15:13.665Z,952.52
2017-05-18T09:16:13.838Z,952.48
2017-05-18T09:17:13.836Z,952.46
2017-05-18T09:18:13.849Z,952.48
2017-05-18T09:19:14.011Z,952.43
2017-05-18T09:20:14.610Z,952.45
2017-05-18T09:21:15.302Z,952.47
2017-05-18T09:22:15.253Z,952.47
2017-05-18T09:23:14.401Z,952.46
2017-05-18T09:24:14.320Z,952.44
2017-05-18T09:25:14.820Z,952.45
2017-05-18T09:26:14.779Z,952.44
2017-05-18T09:27:15.250Z,952.46
2017-05-18T09:28:14.640Z,952.45
2017-05-18T09:29:16.167Z,952.44
2017-05-18T09:30:15.741Z,952.46
2017-05-18T09:31:14.423Z,952.41
2017-05-18T09:32:14.880Z,952.44
2017-05-18T09:33:11.410Z,952.43
2017-05-18T09:34:14.336Z,952.45
2017-05-18T09:35:11.673Z,952.44
2017-05-18T09:36:14.113Z,952.43
2017-05-18T09:37:14.569Z,952.49
2017-05-18T09:38:14.747Z,952.45
2017-05-18T09:39:14.266Z,952.46
2017-05-18T09:40:14.733Z,952.45
2017-05-18T09:41:13.565Z,952.46
2017-05-18T09:42:14.793Z,952.46
2017-05-18T09:43:14.190Z,952.41
2017-05-18T09:44:14.141Z,952.41
2017-05-18T09:45:15.013Z,952.48
2017-05-18T09:46:14.215Z,952.42
2017-05-18T09:47:11.069Z,952.49
2017-05-18T09:48:13.509Z,952.42
2017-05-18T09:49:14.842Z,952.49
2017-05-18T09:50:13.938Z,952.44
2017-05-18T09:51:14.283Z,952.44
2017-05-18T09:52:14.689Z,952.43
2017-05-18T09:53:13.838Z,952.36
2017-05-18T09:54:14.690Z,952.44
2017-05-18T09:55:11.302Z,952.40
2017-05-18T09:56:13.630Z,952.40
2017-05-18T09:57:14.635Z,952.38
2017-05-18T09:58:14.512Z,952.38
2017-05-18T09:59:14.693Z,952.41
2017-05-18T10:00:14.175Z,952.42
2017-05-18T10:01:11.807Z,952.36
2017-05-18T10:02:14.185Z,952.32
2017-05-18T10:03:14.982Z,952.38
2017-05-18T10:04:14.756Z,952.33
2017-05-18T10:05:14.095Z,952.38
2017-05-18T10:06:14.228Z,952.36
2017-05-18T10:07:14.574Z,952.34
2017-05-18T10:08:14.730Z,952.35
2017-05-18T10:09:14.694Z,952.31
2017-05-18T10:10:14.762Z,952.39
2017-05-18T10:11:14.183Z,952.33
2017-05-18T10:12:14.504Z,952.29
2017-05-18T10:13:14.957Z,952.34
2017-05-18T10:14:14.548Z,952.30
2017-05-18T10:15:14.955Z,952.27
2017-05-18T10:16:13.937Z,952.30
2017-05-18T10:17:14.162Z,952.29
2017-05-18T10:18:14.385Z,952.24
2017-05-18T10:19:14.294Z,952.28
2017-05-18T10:20:14.258Z,952.31
2017-05-18T10:21:15.060Z,952.30
2017-05-18T10:22:14.174Z,952.29
2017-05-18T10:23:14.311Z,952.25
2017-05-18T10:24:15.328Z,952.25
2017-05-18T10:25:14.653Z,952.24
2017-05-18T10:26:15.429Z,952.26
2017-05-18T10:27:14.871Z,952.27
2017-05-18T10:28:14.608Z,952.30
2017-05-18T10:29:13.729Z,952.28
2017-05-18T10:30:14.999Z,952.34
2017-05-18T10:31:14.296Z,952.31
2017-05-18T10:32:15.389Z,952.33
2017-05-18T10:33:14.282Z,952.30
2017-05-18T10:34:14.628Z,952.34
2017-05-18T10:35:14.678Z,952.31
2017-05-18T10:36:10.362Z,952.35
2017-05-18T10:37:14.233Z,952.36
2017-05-18T10:38:14.292Z,952.41
2017-05-18T10:39:11.705Z,952.33
2017-05-18T10:40:14.528Z,952.29
2017-05-18T10:41:14.586Z,952.30
2017-05-18T10:42:15.074Z,952.32
2017-05-18T10:43:13.948Z,952.33
2017-05-18T10:44:14.358Z,952.36
2017-05-18T10:45:11.610Z,952.31
2017-05-18T10:46:15.620Z,952.30
2017-05-18T10:47:14.499Z,952.32
2017-05-18T10:48:14.721Z,952.27
2017-05-18T10:49:13.884Z,952.33
2017-05-18T10:50:13.942Z,952.37
2017-05-18T10:51:14.226Z,952.36
2017-05-18T10:52:15.210Z,952.40
2017-05-18T10:53:13.953Z,952.36
2017-05-18T10:54:17.488Z,952.36
2017-05-18T10:55:15.277Z,952.33
2017-05-18T10:56:14.152Z,952.32
2017-05-18T10:57:14.068Z,952.28
2017-05-18T10:58:11.083Z,952.33
2017-05-18T10:59:16.719Z,952.29
2017-05-18T11:00:15.190Z,952.25
2017-05-18T11:01:14.327Z,952.22
2017-05-18T11:02:11.691Z,952.30
2017-05-18T11:03:14.506Z,952.33
2017-05-18T11:04:14.709Z,952.34
2017-05-18T11:05:13.448Z,952.32
2017-05-18T11:06:20.289Z,952.27
2017-05-18T11:07:14.292Z,952.29
2017-05-18T11:08:14.749Z,952.25
2017-05-18T11:09:14.484Z,952.25
2017-05-18T11:10:14.816Z,952.32
2017-05-18T11:11:09.954Z,952.26
2017-05-18T11:12:11.641Z,952.26
2017-05-18T11:13:14.780Z,952.24
2017-05-18T11:14:14.204Z,952.25
2017-05-18T11:15:13.906Z,952.25
2017-05-18T11:16:14.229Z,952.24
2017-05-18T11:17:14.993Z,952.24
2017-05-18T11:18:14.417Z,952.22
2017-05-18T11:19:15.105Z,952.15
2017-05-18T11:20:14.008Z,952.10
2017-05-18T11:21:15.531Z,952.10
2017-05-18T11:22:14.619Z,952.07
2017-05-18T11:23:16.267Z,952.07
2017-05-18T11:24:14.464Z,952.06
2017-05-18T11:25:16.513Z,952.02
2017-05-18T11:26:14.709Z,952.05
2017-05-18T11:27:13.909Z,952.08
2017-05-18T11:28:14.575Z,952.09
2017-05-18T11:29:14.580Z,952.09
2017-05-18T11:30:14.568Z,952.05
2017-05-18T11:31:14.654Z,952.05
2017-05-18T11:32:13.588Z,952.02
2017-05-18T11:33:19.861Z,952.03
2017-05-18T11:34:14.341Z,951.99
2017-05-18T11:35:14.631Z,951.94
2017-05-18T11:36:11.884Z,951.94
2017-05-18T11:37:14.721Z,951.92
2017-05-18T11:38:14.426Z,951.85
2017-05-18T11:39:15.292Z,951.89
2017-05-18T11:40:14.291Z,951.89
2017-05-18T11:41:14.360Z,951.88
2017-05-18T11:42:14.376Z,951.87
2017-05-18T11:43:15.314Z,951.86
2017-05-18T11:44:14.491Z,951.88
2017-05-18T11:45:14.722Z,951.89
2017-05-18T11:46:14.297Z,951.86
2017-05-18T11:47:15.234Z,951.90
2017-05-18T11:48:11.871Z,951.90
2017-05-18T11:49:14.553Z,951.91
2017-05-18T11:50:11.640Z,951.89
2017-05-18T11:51:14.469Z,951.89
2017-05-18T11:52:14.571Z,951.84
2017-05-18T11:53:14.646Z,951.84
2017-05-18T11:54:14.499Z,951.83
2017-05-18T11:55:15.290Z,951.87
2017-05-18T11:56:15.204Z,951.85
2017-05-18T11:57:14.781Z,951.85
2017-05-18T11:58:15.353Z,951.85
2017-05-18T11:59:15.080Z,951.83
2017-05-18T12:00:14.240Z,951.83
2017-05-18T12:01:13.079Z,951.81
2017-05-18T12:02:11.243Z,951.79
2017-05-18T12:03:14.671Z,951.82
2017-05-18T12:04:14.072Z,951.84
2017-05-18T12:05:14.317Z,951.83
2017-05-18T12:06:14.483Z,951.81
2017-05-18T12:07:15.346Z,951.80
2017-05-18T12:08:15.435Z,951.79
2017-05-18T12:09:15.125Z,951.79
2017-05-18T12:10:15.029Z,951.75
2017-05-18T12:11:14.117Z,951.76
2017-05-18T12:12:14.185Z,951.76
2017-05-18T12:13:11.986Z,951.75
2017-05-18T12:14:11.401Z,951.73
2017-05-18T12:15:14.132Z,951.69
2017-05-18T12:16:14.147Z,951.68
2017-05-18T12:17:14.308Z,951.73
2017-05-18T12:18:15.069Z,951.73
2017-05-18T12:19:14.415Z,951.69
2017-05-18T12:20:15.044Z,951.72
2017-05-18T12:21:14.720Z,951.67
2017-05-18T12:22:15.388Z,951.65
2017-05-18T12:23:14.810Z,951.61
2017-05-18T12:24:16.474Z,951.66
2017-05-18T12:25:14.337Z,951.68
2017-05-18T12:26:16.878Z,951.65
2017-05-18T12:27:14.703Z,951.62
2017-05-18T12:28:14.347Z,951.60